sensor_id;sensor_type;location;lat;lon;timestamp;pressure;altitude;pressure_sealevel;temperature;humidity
80629;BME280;69983;42.370;-71.210;2023-07-29T00:00:46;101021.58;;;25.56;24.29
80629;BME280;69983;42.370;-71.210;2023-07-29T00:02:46;101020.96;;;25.24;24.25
80629;BME280;69983;42.370;-71.210;2023-07-29T00:04:47;101021.65;;;25.42;24.33
80629;BME280;69983;42.370;-71.210;2023-07-29T00:06:47;101021.27;;;25.48;24.60
80629;BME280;69983;42.370;-71.210;2023-07-29T00:08:47;101020.78;;;25.33;24.63
80629;BME280;69983;42.370;-71.210;2023-07-29T00:10:48;101017.56;;;25.54;24.64
80629;BME280;69983;42.370;-71.210;2023-07-29T00:12:49;101017.55;;;25.90;24.81
80629;BME280;69983;42.370;-71.210;2023-07-29T00:14:49;101017.06;;;25.76;24.69
80629;BME280;69983;42.370;-71.210;2023-07-29T00:16:49;101015.11;;;25.47;24.75
80629;BME280;69983;42.370;-71.210;2023-07-29T00:18:49;101015.71;;;25.58;24.71
80629;BME280;69983;42.370;-71.210;2023-07-29T00:20:49;101017.58;;;25.21;25.01
80629;BME280;69983;42.370;-71.210;2023-07-29T00:22:51;101022.25;;;25.35;24.74
80629;BME280;69983;42.370;-71.210;2023-07-29T00:24:52;101023.60;;;25.05;24.80
80629;BME280;69983;42.370;-71.210;2023-07-29T00:26:51;101025.52;;;25.30;24.65
80629;BME280;69983;42.370;-71.210;2023-07-29T00:28:51;101032.02;;;25.10;24.56
80629;BME280;69983;42.370;-71.210;2023-07-29T00:30:52;101037.47;;;25.20;24.56
80629;BME280;69983;42.370;-71.210;2023-07-29T00:32:53;101040.19;;;25.53;24.83
80629;BME280;69983;42.370;-71.210;2023-07-29T00:34:53;101047.09;;;25.54;24.76
80629;BME280;69983;42.370;-71.210;2023-07-29T00:36:53;101057.97;;;25.63;24.87
80629;BME280;69983;42.370;-71.210;2023-07-29T00:38:54;101060.91;;;25.22;25.04
80629;BME280;69983;42.370;-71.210;2023-07-29T00:40:54;101066.61;;;25.59;24.88
80629;BME280;69983;42.370;-71.210;2023-07-29T00:42:55;101066.66;;;25.58;24.52
80629;BME280;69983;42.370;-71.210;2023-07-29T00:44:55;101064.97;;;25.21;24.62
80629;BME280;69983;42.370;-71.210;2023-07-29T00:46:56;101064.25;;;25.43;24.40
80629;BME280;69983;42.370;-71.210;2023-07-29T00:48:57;101061.68;;;25.69;24.25
80629;BME280;69983;42.370;-71.210;2023-07-29T00:50:58;101069.00;;;24.78;24.62
80629;BME280;69983;42.370;-71.210;2023-07-29T00:52:58;101075.23;;;25.17;24.52
80629;BME280;69983;42.370;-71.210;2023-07-29T00:54:58;101079.26;;;25.31;24.65
80629;BME280;69983;42.370;-71.210;2023-07-29T00:56:59;101077.69;;;25.47;24.72
80629;BME280;69983;42.370;-71.210;2023-07-29T00:58:59;101078.37;;;25.44;24.76
80629;BME280;69983;42.370;-71.210;2023-07-29T01:01:00;101074.07;;;25.18;24.81
80629;BME280;69983;42.370;-71.210;2023-07-29T01:02:59;101076.27;;;25.26;24.66
80629;BME280;69983;42.370;-71.210;2023-07-29T01:05:00;101074.22;;;25.16;24.54
80629;BME280;69983;42.370;-71.210;2023-07-29T01:07:11;101072.76;;;25.51;24.35
80629;BME280;69983;42.370;-71.210;2023-07-29T01:09:03;101075.45;;;25.18;24.54
80629;BME280;69983;42.370;-71.210;2023-07-29T01:11:09;101077.61;;;25.25;24.30
80629;BME280;69983;42.370;-71.210;2023-07-29T01:13:06;101081.87;;;25.28;24.23
80629;BME280;69983;42.370;-71.210;2023-07-29T01:15:11;101080.10;;;25.13;24.53
80629;BME280;69983;42.370;-71.210;2023-07-29T01:17:04;101081.45;;;25.47;24.57
80629;BME280;69983;42.370;-71.210;2023-07-29T01:19:06;101082.10;;;25.42;24.61
80629;BME280;69983;42.370;-71.210;2023-07-29T01:21:05;101084.26;;;25.42;24.78
80629;BME280;69983;42.370;-71.210;2023-07-29T01:23:04;101086.62;;;25.43;24.63
80629;BME280;69983;42.370;-71.210;2023-07-29T01:25:05;101082.15;;;25.56;24.54
80629;BME280;69983;42.370;-71.210;2023-07-29T01:27:05;101078.43;;;25.44;24.40
80629;BME280;69983;42.370;-71.210;2023-07-29T01:29:05;101072.86;;;25.29;24.56
80629;BME280;69983;42.370;-71.210;2023-07-29T01:31:12;101067.45;;;25.19;24.48
80629;BME280;69983;42.370;-71.210;2023-07-29T01:33:11;101068.61;;;24.39;24.63
80629;BME280;69983;42.370;-71.210;2023-07-29T01:35:15;101069.47;;;25.14;24.71
80629;BME280;69983;42.370;-71.210;2023-07-29T01:37:09;101067.58;;;25.34;24.66
80629;BME280;69983;42.370;-71.210;2023-07-29T01:39:07;101062.99;;;25.55;24.65
80629;BME280;69983;42.370;-71.210;2023-07-29T01:41:09;101065.52;;;25.64;24.89
80629;BME280;69983;42.370;-71.210;2023-07-29T01:43:08;101069.97;;;25.32;24.63
80629;BME280;69983;42.370;-71.210;2023-07-29T01:45:09;101073.79;;;25.33;24.70
80629;BME280;69983;42.370;-71.210;2023-07-29T01:47:08;101075.08;;;25.47;24.46
80629;BME280;69983;42.370;-71.210;2023-07-29T01:49:09;101079.09;;;25.32;24.45
80629;BME280;69983;42.370;-71.210;2023-07-29T01:51:12;101079.46;;;25.15;24.39
80629;BME280;69983;42.370;-71.210;2023-07-29T01:53:10;101079.44;;;25.18;24.66
80629;BME280;69983;42.370;-71.210;2023-07-29T01:55:10;101082.68;;;25.06;24.68
80629;BME280;69983;42.370;-71.210;2023-07-29T01:57:11;101081.69;;;25.15;24.76
80629;BME280;69983;42.370;-71.210;2023-07-29T01:59:11;101076.66;;;25.88;24.92
80629;BME280;69983;42.370;-71.210;2023-07-29T02:01:11;101078.48;;;25.47;24.59
80629;BME280;69983;42.370;-71.210;2023-07-29T02:03:12;101080.26;;;25.42;24.40
80629;BME280;69983;42.370;-71.210;2023-07-29T02:05:13;101083.21;;;25.26;24.40
80629;BME280;69983;42.370;-71.210;2023-07-29T02:07:13;101088.90;;;25.34;24.43
80629;BME280;69983;42.370;-71.210;2023-07-29T02:09:13;101093.36;;;25.35;24.33
80629;BME280;69983;42.370;-71.210;2023-07-29T02:11:13;101094.70;;;25.40;24.61
80629;BME280;69983;42.370;-71.210;2023-07-29T02:13:14;101093.32;;;25.30;24.90
80629;BME280;69983;42.370;-71.210;2023-07-29T02:15:14;101092.58;;;25.50;24.92
80629;BME280;69983;42.370;-71.210;2023-07-29T02:17:16;101095.28;;;25.62;25.10
80629;BME280;69983;42.370;-71.210;2023-07-29T02:19:16;101099.75;;;25.57;24.81
80629;BME280;69983;42.370;-71.210;2023-07-29T02:21:16;101102.90;;;25.22;24.77
80629;BME280;69983;42.370;-71.210;2023-07-29T02:23:17;101100.25;;;25.17;24.73
80629;BME280;69983;42.370;-71.210;2023-07-29T02:25:17;101093.63;;;25.44;24.44
80629;BME280;69983;42.370;-71.210;2023-07-29T02:27:18;101090.69;;;25.34;24.70
80629;BME280;69983;42.370;-71.210;2023-07-29T02:29:18;101086.86;;;25.39;24.77
80629;BME280;69983;42.370;-71.210;2023-07-29T02:31:22;101088.40;;;25.30;24.82
80629;BME280;69983;42.370;-71.210;2023-07-29T02:33:19;101095.13;;;25.54;25.16
80629;BME280;69983;42.370;-71.210;2023-07-29T02:35:19;101096.13;;;25.47;24.84
80629;BME280;69983;42.370;-71.210;2023-07-29T02:37:19;101095.24;;;25.58;24.60
80629;BME280;69983;42.370;-71.210;2023-07-29T02:39:19;101091.07;;;24.98;24.94
80629;BME280;69983;42.370;-71.210;2023-07-29T02:41:19;101091.93;;;25.14;24.77
80629;BME280;69983;42.370;-71.210;2023-07-29T02:43:19;101092.75;;;24.99;24.68
80629;BME280;69983;42.370;-71.210;2023-07-29T02:45:19;101094.19;;;25.51;24.83
80629;BME280;69983;42.370;-71.210;2023-07-29T02:47:20;101092.89;;;25.08;24.92
80629;BME280;69983;42.370;-71.210;2023-07-29T02:49:20;101089.07;;;25.31;24.90
80629;BME280;69983;42.370;-71.210;2023-07-29T02:51:20;101088.54;;;25.76;24.88
80629;BME280;69983;42.370;-71.210;2023-07-29T02:53:22;101090.23;;;25.20;25.10
80629;BME280;69983;42.370;-71.210;2023-07-29T02:55:22;101089.14;;;25.42;24.83
80629;BME280;69983;42.370;-71.210;2023-07-29T02:57:22;101091.14;;;24.92;24.97
80629;BME280;69983;42.370;-71.210;2023-07-29T02:59:22;101094.59;;;24.87;24.83
80629;BME280;69983;42.370;-71.210;2023-07-29T03:01:23;101097.78;;;25.08;24.69
80629;BME280;69983;42.370;-71.210;2023-07-29T03:03:23;101100.90;;;24.97;25.03
80629;BME280;69983;42.370;-71.210;2023-07-29T03:05:23;101105.08;;;25.23;24.81
80629;BME280;69983;42.370;-71.210;2023-07-29T03:07:24;101107.89;;;25.28;24.95
80629;BME280;69983;42.370;-71.210;2023-07-29T03:09:25;101112.29;;;25.43;24.95
80629;BME280;69983;42.370;-71.210;2023-07-29T03:11:25;101112.16;;;25.60;24.94
80629;BME280;69983;42.370;-71.210;2023-07-29T03:13:26;101114.88;;;25.29;24.77
80629;BME280;69983;42.370;-71.210;2023-07-29T03:15:26;101118.12;;;25.58;24.41
80629;BME280;69983;42.370;-71.210;2023-07-29T03:17:27;101114.43;;;25.36;24.55
80629;BME280;69983;42.370;-71.210;2023-07-29T03:19:27;101109.38;;;25.10;24.52
80629;BME280;69983;42.370;-71.210;2023-07-29T03:21:28;101106.10;;;25.20;24.34
80629;BME280;69983;42.370;-71.210;2023-07-29T03:23:29;101110.46;;;25.05;24.66
80629;BME280;69983;42.370;-71.210;2023-07-29T03:25:28;101109.99;;;25.06;24.65
80629;BME280;69983;42.370;-71.210;2023-07-29T03:27:29;101115.50;;;25.35;24.60
80629;BME280;69983;42.370;-71.210;2023-07-29T03:29:29;101115.57;;;25.39;24.74
80629;BME280;69983;42.370;-71.210;2023-07-29T03:31:30;101118.62;;;25.67;24.73
80629;BME280;69983;42.370;-71.210;2023-07-29T03:33:30;101124.63;;;25.40;24.72
80629;BME280;69983;42.370;-71.210;2023-07-29T03:35:31;101127.28;;;25.22;24.48
80629;BME280;69983;42.370;-71.210;2023-07-29T03:37:31;101127.34;;;25.05;24.50
80629;BME280;69983;42.370;-71.210;2023-07-29T03:39:32;101127.83;;;25.23;24.20
80629;BME280;69983;42.370;-71.210;2023-07-29T03:41:32;101126.55;;;25.01;24.32
80629;BME280;69983;42.370;-71.210;2023-07-29T03:43:32;101128.99;;;24.83;24.51
80629;BME280;69983;42.370;-71.210;2023-07-29T03:45:33;101125.92;;;24.87;24.72
80629;BME280;69983;42.370;-71.210;2023-07-29T03:47:34;101122.11;;;25.33;24.67
80629;BME280;69983;42.370;-71.210;2023-07-29T03:49:35;101120.76;;;25.12;24.82
80629;BME280;69983;42.370;-71.210;2023-07-29T03:51:35;101123.45;;;25.38;24.74
80629;BME280;69983;42.370;-71.210;2023-07-29T03:53:36;101121.36;;;25.55;24.56
80629;BME280;69983;42.370;-71.210;2023-07-29T03:55:36;101122.14;;;25.38;24.63
80629;BME280;69983;42.370;-71.210;2023-07-29T03:57:37;101120.00;;;25.18;24.47
80629;BME280;69983;42.370;-71.210;2023-07-29T03:59:38;101120.05;;;25.51;24.23
80629;BME280;69983;42.370;-71.210;2023-07-29T04:01:38;101114.39;;;25.06;24.28
80629;BME280;69983;42.370;-71.210;2023-07-29T04:03:39;101117.74;;;24.64;24.87
80629;BME280;69983;42.370;-71.210;2023-07-29T04:05:39;101115.93;;;25.01;24.53
80629;BME280;69983;42.370;-71.210;2023-07-29T04:07:39;101116.12;;;25.24;24.51
80629;BME280;69983;42.370;-71.210;2023-07-29T04:09:40;101118.02;;;25.35;24.59
80629;BME280;69983;42.370;-71.210;2023-07-29T04:11:40;101115.95;;;25.33;24.76
80629;BME280;69983;42.370;-71.210;2023-07-29T04:13:40;101111.46;;;25.18;24.78
80629;BME280;69983;42.370;-71.210;2023-07-29T04:15:40;101108.90;;;25.34;24.31
80629;BME280;69983;42.370;-71.210;2023-07-29T04:17:41;101105.84;;;25.17;24.18
80629;BME280;69983;42.370;-71.210;2023-07-29T04:19:41;101109.02;;;24.81;24.41
80629;BME280;69983;42.370;-71.210;2023-07-29T04:21:42;101107.14;;;25.12;24.37
80629;BME280;69983;42.370;-71.210;2023-07-29T04:23:43;101104.15;;;25.14;24.45
80629;BME280;69983;42.370;-71.210;2023-07-29T04:25:43;101105.40;;;25.32;24.48
80629;BME280;69983;42.370;-71.210;2023-07-29T04:27:43;101106.03;;;25.48;24.51
80629;BME280;69983;42.370;-71.210;2023-07-29T04:29:44;101106.23;;;25.61;24.60
80629;BME280;69983;42.370;-71.210;2023-07-29T04:31:44;101107.73;;;25.29;24.38
80629;BME280;69983;42.370;-71.210;2023-07-29T04:33:44;101106.51;;;25.17;24.41
80629;BME280;69983;42.370;-71.210;2023-07-29T04:35:44;101104.28;;;25.21;24.17
80629;BME280;69983;42.370;-71.210;2023-07-29T04:37:44;101102.21;;;25.00;24.27
80629;BME280;69983;42.370;-71.210;2023-07-29T04:39:45;101099.50;;;25.05;24.07
80629;BME280;69983;42.370;-71.210;2023-07-29T04:41:45;101100.94;;;25.13;24.39
80629;BME280;69983;42.370;-71.210;2023-07-29T04:43:45;101095.64;;;24.86;24.52
80629;BME280;69983;42.370;-71.210;2023-07-29T04:45:45;101093.41;;;25.10;24.48
80629;BME280;69983;42.370;-71.210;2023-07-29T04:47:46;101092.99;;;25.59;24.44
80629;BME280;69983;42.370;-71.210;2023-07-29T04:49:47;101088.13;;;25.51;24.45
80629;BME280;69983;42.370;-71.210;2023-07-29T04:51:47;101080.79;;;25.69;24.52
80629;BME280;69983;42.370;-71.210;2023-07-29T04:53:47;101077.00;;;25.15;24.57
80629;BME280;69983;42.370;-71.210;2023-07-29T04:55:48;101076.03;;;25.31;24.29
80629;BME280;69983;42.370;-71.210;2023-07-29T04:57:48;101077.69;;;25.22;24.19
80629;BME280;69983;42.370;-71.210;2023-07-29T04:59:49;101075.63;;;25.03;24.06
80629;BME280;69983;42.370;-71.210;2023-07-29T05:01:49;101070.12;;;24.87;23.99
80629;BME280;69983;42.370;-71.210;2023-07-29T05:03:49;101073.73;;;24.83;24.15
80629;BME280;69983;42.370;-71.210;2023-07-29T05:05:50;101068.15;;;25.07;24.15
80629;BME280;69983;42.370;-71.210;2023-07-29T05:07:50;101070.76;;;25.02;24.34
80629;BME280;69983;42.370;-71.210;2023-07-29T05:09:51;101065.46;;;25.16;24.39
80629;BME280;69983;42.370;-71.210;2023-07-29T05:11:50;101057.21;;;25.38;24.35
80629;BME280;69983;42.370;-71.210;2023-07-29T05:13:51;101050.62;;;25.53;24.35
80629;BME280;69983;42.370;-71.210;2023-07-29T05:15:51;101046.28;;;25.58;24.49
80629;BME280;69983;42.370;-71.210;2023-07-29T05:17:51;101041.09;;;25.52;24.24
80629;BME280;69983;42.370;-71.210;2023-07-29T05:19:51;101038.07;;;25.26;24.15
80629;BME280;69983;42.370;-71.210;2023-07-29T05:21:51;101033.72;;;25.05;24.20
80629;BME280;69983;42.370;-71.210;2023-07-29T05:23:51;101032.08;;;25.23;24.08
80629;BME280;69983;42.370;-71.210;2023-07-29T05:25:52;101029.86;;;24.84;24.06
80629;BME280;69983;42.370;-71.210;2023-07-29T05:27:52;101021.49;;;24.98;24.19
80629;BME280;69983;42.370;-71.210;2023-07-29T05:29:53;101017.63;;;25.35;24.28
80629;BME280;69983;42.370;-71.210;2023-07-29T05:31:53;101011.25;;;25.24;24.36
80629;BME280;69983;42.370;-71.210;2023-07-29T05:33:54;101009.75;;;25.37;24.40
80629;BME280;69983;42.370;-71.210;2023-07-29T05:35:55;101006.50;;;25.75;24.43
80629;BME280;69983;42.370;-71.210;2023-07-29T05:37:55;101007.27;;;24.05;24.13
80629;BME280;69983;42.370;-71.210;2023-07-29T05:39:56;101003.40;;;24.01;23.58
80629;BME280;69983;42.370;-71.210;2023-07-29T05:41:56;100999.31;;;24.39;23.17
80629;BME280;69983;42.370;-71.210;2023-07-29T05:43:56;100994.94;;;23.87;23.15
80629;BME280;69983;42.370;-71.210;2023-07-29T05:45:57;100996.28;;;24.19;22.60
80629;BME280;69983;42.370;-71.210;2023-07-29T05:47:57;100998.40;;;26.15;23.07
80629;BME280;69983;42.370;-71.210;2023-07-29T05:49:58;100998.87;;;25.87;23.62
80629;BME280;69983;42.370;-71.210;2023-07-29T05:51:58;100995.20;;;25.36;23.99
80629;BME280;69983;42.370;-71.210;2023-07-29T05:53:59;100993.26;;;25.36;24.13
80629;BME280;69983;42.370;-71.210;2023-07-29T05:55:59;100986.20;;;25.36;24.27
80629;BME280;69983;42.370;-71.210;2023-07-29T05:58:00;100982.32;;;25.66;24.31
80629;BME280;69983;42.370;-71.210;2023-07-29T06:00:00;100984.11;;;25.70;24.34
80629;BME280;69983;42.370;-71.210;2023-07-29T06:02:00;100982.69;;;25.42;24.15
80629;BME280;69983;42.370;-71.210;2023-07-29T06:04:01;100976.37;;;25.50;24.06
80629;BME280;69983;42.370;-71.210;2023-07-29T06:06:01;100971.39;;;24.17;24.78
80629;BME280;69983;42.370;-71.210;2023-07-29T06:08:01;100964.44;;;24.62;24.22
80629;BME280;69983;42.370;-71.210;2023-07-29T06:10:01;100962.93;;;25.10;24.40
80629;BME280;69983;42.370;-71.210;2023-07-29T06:12:01;100960.63;;;25.00;24.41
80629;BME280;69983;42.370;-71.210;2023-07-29T06:14:01;100958.53;;;25.25;24.38
80629;BME280;69983;42.370;-71.210;2023-07-29T06:16:01;100957.59;;;25.26;24.47
80629;BME280;69983;42.370;-71.210;2023-07-29T06:18:01;100950.86;;;25.31;24.63
80629;BME280;69983;42.370;-71.210;2023-07-29T06:20:03;100945.19;;;25.34;24.39
80629;BME280;69983;42.370;-71.210;2023-07-29T06:22:03;100939.02;;;25.31;24.25
80629;BME280;69983;42.370;-71.210;2023-07-29T06:24:03;100935.61;;;24.53;24.39
80629;BME280;69983;42.370;-71.210;2023-07-29T06:26:04;100927.12;;;24.99;24.14
80629;BME280;69983;42.370;-71.210;2023-07-29T06:28:04;100923.60;;;24.38;24.63
80629;BME280;69983;42.370;-71.210;2023-07-29T06:30:07;100923.34;;;25.02;24.24
80629;BME280;69983;42.370;-71.210;2023-07-29T06:32:05;100924.58;;;25.26;24.18
80629;BME280;69983;42.370;-71.210;2023-07-29T06:34:05;100923.68;;;25.40;24.18
80629;BME280;69983;42.370;-71.210;2023-07-29T06:36:05;100923.90;;;25.47;24.23
80629;BME280;69983;42.370;-71.210;2023-07-29T06:38:05;100921.42;;;25.48;24.48
80629;BME280;69983;42.370;-71.210;2023-07-29T06:40:07;100920.60;;;25.10;24.41
80629;BME280;69983;42.370;-71.210;2023-07-29T06:42:06;100921.58;;;25.09;24.26
80629;BME280;69983;42.370;-71.210;2023-07-29T06:44:06;100924.27;;;25.04;24.08
80629;BME280;69983;42.370;-71.210;2023-07-29T06:46:07;100924.49;;;24.51;24.25
80629;BME280;69983;42.370;-71.210;2023-07-29T06:48:08;100920.31;;;24.75;24.29
80629;BME280;69983;42.370;-71.210;2023-07-29T06:50:08;100924.81;;;25.08;24.27
80629;BME280;69983;42.370;-71.210;2023-07-29T06:52:08;100924.84;;;25.05;24.24
80629;BME280;69983;42.370;-71.210;2023-07-29T06:54:08;100919.87;;;25.08;24.34
80629;BME280;69983;42.370;-71.210;2023-07-29T06:56:08;100910.80;;;25.11;24.42
80629;BME280;69983;42.370;-71.210;2023-07-29T06:58:09;100903.53;;;25.36;24.33
80629;BME280;69983;42.370;-71.210;2023-07-29T07:00:09;100899.22;;;25.08;24.65
80629;BME280;69983;42.370;-71.210;2023-07-29T07:02:09;100886.62;;;24.83;24.58
80629;BME280;69983;42.370;-71.210;2023-07-29T07:04:09;100881.66;;;24.76;24.46
80629;BME280;69983;42.370;-71.210;2023-07-29T07:06:10;100879.48;;;24.26;24.57
80629;BME280;69983;42.370;-71.210;2023-07-29T07:08:10;100877.62;;;24.68;24.25
80629;BME280;69983;42.370;-71.210;2023-07-29T07:10:11;100877.96;;;24.50;24.50
80629;BME280;69983;42.370;-71.210;2023-07-29T07:12:10;100879.49;;;25.10;24.51
80629;BME280;69983;42.370;-71.210;2023-07-29T07:14:11;100878.69;;;25.10;24.47
80629;BME280;69983;42.370;-71.210;2023-07-29T07:16:11;100875.66;;;24.95;24.53
80629;BME280;69983;42.370;-71.210;2023-07-29T07:18:11;100873.83;;;25.16;24.49
80629;BME280;69983;42.370;-71.210;2023-07-29T07:20:12;100867.32;;;25.04;24.77
80629;BME280;69983;42.370;-71.210;2023-07-29T07:22:11;100866.25;;;25.17;24.34
80629;BME280;69983;42.370;-71.210;2023-07-29T07:24:11;100863.37;;;24.79;24.31
80629;BME280;69983;42.370;-71.210;2023-07-29T07:26:11;100858.42;;;24.89;24.29
80629;BME280;69983;42.370;-71.210;2023-07-29T07:28:11;100855.34;;;24.69;24.25
80629;BME280;69983;42.370;-71.210;2023-07-29T07:30:12;100852.86;;;24.64;24.42
80629;BME280;69983;42.370;-71.210;2023-07-29T07:32:12;100849.69;;;24.64;24.56
80629;BME280;69983;42.370;-71.210;2023-07-29T07:34:12;100841.44;;;24.78;24.57
80629;BME280;69983;42.370;-71.210;2023-07-29T07:36:12;100838.91;;;25.00;24.70
80629;BME280;69983;42.370;-71.210;2023-07-29T07:38:12;100836.20;;;24.96;24.88
80629;BME280;69983;42.370;-71.210;2023-07-29T07:40:13;100835.31;;;25.00;24.75
80629;BME280;69983;42.370;-71.210;2023-07-29T07:42:12;100833.29;;;25.19;24.68
80629;BME280;69983;42.370;-71.210;2023-07-29T07:44:13;100830.41;;;25.07;24.94
80629;BME280;69983;42.370;-71.210;2023-07-29T07:46:13;100833.94;;;25.15;24.75
80629;BME280;69983;42.370;-71.210;2023-07-29T07:48:13;100836.49;;;24.64;24.69
80629;BME280;69983;42.370;-71.210;2023-07-29T07:50:13;100835.96;;;24.79;24.44
80629;BME280;69983;42.370;-71.210;2023-07-29T07:52:13;100837.66;;;24.57;24.35
80629;BME280;69983;42.370;-71.210;2023-07-29T07:54:13;100840.86;;;25.00;24.66
80629;BME280;69983;42.370;-71.210;2023-07-29T07:56:13;100841.86;;;25.10;24.69
80629;BME280;69983;42.370;-71.210;2023-07-29T07:58:13;100844.58;;;24.60;24.87
80629;BME280;69983;42.370;-71.210;2023-07-29T08:00:14;100842.96;;;24.75;24.83
80629;BME280;69983;42.370;-71.210;2023-07-29T08:02:14;100846.16;;;24.90;24.79
80629;BME280;69983;42.370;-71.210;2023-07-29T08:04:14;100842.15;;;24.86;24.93
80629;BME280;69983;42.370;-71.210;2023-07-29T08:06:14;100842.41;;;24.95;24.94
80629;BME280;69983;42.370;-71.210;2023-07-29T08:08:14;100841.85;;;24.78;25.32
80629;BME280;69983;42.370;-71.210;2023-07-29T08:10:14;100843.85;;;24.95;24.74
80629;BME280;69983;42.370;-71.210;2023-07-29T08:12:14;100844.08;;;24.65;24.74
80629;BME280;69983;42.370;-71.210;2023-07-29T08:14:14;100841.15;;;24.46;24.68
80629;BME280;69983;42.370;-71.210;2023-07-29T08:16:15;100835.74;;;24.13;25.02
80629;BME280;69983;42.370;-71.210;2023-07-29T08:18:14;100834.75;;;24.65;24.75
80629;BME280;69983;42.370;-71.210;2023-07-29T08:20:15;100836.17;;;24.47;24.82
80629;BME280;69983;42.370;-71.210;2023-07-29T08:22:15;100840.24;;;24.80;24.86
80629;BME280;69983;42.370;-71.210;2023-07-29T08:24:15;100843.91;;;24.70;24.86
80629;BME280;69983;42.370;-71.210;2023-07-29T08:26:15;100841.25;;;24.89;24.99
80629;BME280;69983;42.370;-71.210;2023-07-29T08:28:15;100842.17;;;24.89;24.88
80629;BME280;69983;42.370;-71.210;2023-07-29T08:30:15;100847.81;;;25.11;25.01
80629;BME280;69983;42.370;-71.210;2023-07-29T08:32:16;100847.35;;;25.19;24.78
80629;BME280;69983;42.370;-71.210;2023-07-29T08:34:15;100849.64;;;24.53;24.76
80629;BME280;69983;42.370;-71.210;2023-07-29T08:36:16;100851.73;;;24.37;24.68
80629;BME280;69983;42.370;-71.210;2023-07-29T08:38:16;100857.17;;;24.12;24.79
80629;BME280;69983;42.370;-71.210;2023-07-29T08:40:16;100857.63;;;24.52;25.19
80629;BME280;69983;42.370;-71.210;2023-07-29T08:42:17;100860.94;;;24.78;25.11
80629;BME280;69983;42.370;-71.210;2023-07-29T08:44:20;100867.60;;;24.97;25.10
80629;BME280;69983;42.370;-71.210;2023-07-29T08:46:16;100868.75;;;24.68;25.06
80629;BME280;69983;42.370;-71.210;2023-07-29T08:48:21;100867.20;;;24.77;25.15
80629;BME280;69983;42.370;-71.210;2023-07-29T08:50:17;100870.54;;;24.86;25.15
80629;BME280;69983;42.370;-71.210;2023-07-29T08:52:16;100870.13;;;24.94;25.16
80629;BME280;69983;42.370;-71.210;2023-07-29T08:54:17;100866.59;;;24.93;24.81
80629;BME280;69983;42.370;-71.210;2023-07-29T08:56:17;100864.55;;;24.63;24.94
80629;BME280;69983;42.370;-71.210;2023-07-29T08:58:17;100868.57;;;24.38;24.85
80629;BME280;69983;42.370;-71.210;2023-07-29T09:00:17;100868.08;;;24.53;25.26
80629;BME280;69983;42.370;-71.210;2023-07-29T09:02:18;100860.86;;;24.57;25.07
80629;BME280;69983;42.370;-71.210;2023-07-29T09:04:17;100866.20;;;24.84;25.16
80629;BME280;69983;42.370;-71.210;2023-07-29T09:06:17;100871.49;;;25.02;25.12
80629;BME280;69983;42.370;-71.210;2023-07-29T09:08:18;100873.57;;;24.57;25.19
80629;BME280;69983;42.370;-71.210;2023-07-29T09:10:22;100875.16;;;24.58;25.27
80629;BME280;69983;42.370;-71.210;2023-07-29T09:12:17;100872.48;;;24.75;25.25
80629;BME280;69983;42.370;-71.210;2023-07-29T09:14:17;100866.94;;;24.61;24.99
80629;BME280;69983;42.370;-71.210;2023-07-29T09:16:18;100863.23;;;24.56;24.91
80629;BME280;69983;42.370;-71.210;2023-07-29T09:18:19;100863.22;;;24.79;24.79
80629;BME280;69983;42.370;-71.210;2023-07-29T09:20:24;100872.96;;;24.45;25.28
80629;BME280;69983;42.370;-71.210;2023-07-29T09:22:18;100871.21;;;24.19;25.16
80629;BME280;69983;42.370;-71.210;2023-07-29T09:24:18;100859.99;;;24.60;25.15
80629;BME280;69983;42.370;-71.210;2023-07-29T09:26:23;100857.07;;;24.85;25.25
80629;BME280;69983;42.370;-71.210;2023-07-29T09:28:20;100856.38;;;24.91;25.41
80629;BME280;69983;42.370;-71.210;2023-07-29T09:30:19;100852.76;;;24.59;25.38
80629;BME280;69983;42.370;-71.210;2023-07-29T09:32:20;100846.65;;;24.74;25.51
80629;BME280;69983;42.370;-71.210;2023-07-29T09:34:19;100847.25;;;25.30;25.20
80629;BME280;69983;42.370;-71.210;2023-07-29T09:36:21;100847.20;;;24.68;25.03
80629;BME280;69983;42.370;-71.210;2023-07-29T09:38:27;100845.42;;;24.20;24.97
80629;BME280;69983;42.370;-71.210;2023-07-29T09:40:19;100839.57;;;24.16;25.02
80629;BME280;69983;42.370;-71.210;2023-07-29T09:42:21;100836.60;;;23.98;25.18
80629;BME280;69983;42.370;-71.210;2023-07-29T09:44:19;100833.78;;;24.26;24.98
80629;BME280;69983;42.370;-71.210;2023-07-29T09:46:23;100831.69;;;24.79;25.03
80629;BME280;69983;42.370;-71.210;2023-07-29T09:48:28;100830.84;;;24.37;25.10
80629;BME280;69983;42.370;-71.210;2023-07-29T09:50:24;100827.05;;;24.72;25.13
80629;BME280;69983;42.370;-71.210;2023-07-29T09:52:21;100828.18;;;24.55;25.18
80629;BME280;69983;42.370;-71.210;2023-07-29T09:54:21;100828.55;;;24.61;25.22
80629;BME280;69983;42.370;-71.210;2023-07-29T09:56:25;100832.81;;;25.12;25.05
80629;BME280;69983;42.370;-71.210;2023-07-29T09:58:26;100837.58;;;24.37;25.16
80629;BME280;69983;42.370;-71.210;2023-07-29T10:00:20;100838.84;;;24.41;24.96
80629;BME280;69983;42.370;-71.210;2023-07-29T10:02:21;100843.40;;;24.41;24.90
80629;BME280;69983;42.370;-71.210;2023-07-29T10:04:21;100842.27;;;24.63;25.08
80629;BME280;69983;42.370;-71.210;2023-07-29T10:06:21;100845.62;;;24.45;25.11
80629;BME280;69983;42.370;-71.210;2023-07-29T10:08:22;100844.29;;;24.48;25.17
80629;BME280;69983;42.370;-71.210;2023-07-29T10:10:21;100843.66;;;24.65;25.14
80629;BME280;69983;42.370;-71.210;2023-07-29T10:12:22;100846.33;;;24.81;25.11